Vitorino Freire, Brazil
Current Conditions -  °F | °C
As of 4:00 PM on Friday 31 Oct 2014 (Local Time) from SBSL Reporting Station
Clear Clear  
Wind Chill: 86°   Ceiling: Unl
Heat Index: 88°   Visibility: 6mi
Dew Point: 66°   Wind: 28mph
Humidity: 51%   Direction: 40°NE
Pressure: 29.8"   Gusts: NA
Location:  4.29°S, 45.25°W
Report Text: SBSL 311900Z 04024KT CAVOK 30/19 Q1009
Loading
Personal Weather Stations






























Interactive Weather Map
Tropical Storm Tracking
New forecast layout! Learn more

10-Day Weather Forecast

Advertisements
Track Severe Weather on mobile